sensor_id;sensor_type;location;lat;lon;timestamp;pressure;altitude;pressure_sealevel;temperature;humidity
81274;BME280;70753;47.908;11.274;2023-10-09T00:00:20;95494.03;;;17.00;59.22
81274;BME280;70753;47.908;11.274;2023-10-09T00:02:50;95496.72;;;17.00;59.41
81274;BME280;70753;47.908;11.274;2023-10-09T00:05:17;95492.56;;;16.94;59.25
81274;BME280;70753;47.908;11.274;2023-10-09T00:07:42;95487.72;;;17.05;59.06
81274;BME280;70753;47.908;11.274;2023-10-09T00:10:08;95490.72;;;17.03;59.31
81274;BME280;70753;47.908;11.274;2023-10-09T00:12:33;95485.94;;;17.00;59.39
81274;BME280;70753;47.908;11.274;2023-10-09T00:14:59;95485.19;;;16.86;59.88
81274;BME280;70753;47.908;11.274;2023-10-09T00:17:24;95483.19;;;16.92;59.58
81274;BME280;70753;47.908;11.274;2023-10-09T00:19:50;95475.41;;;16.90;60.13
81274;BME280;70753;47.908;11.274;2023-10-09T00:22:17;95482.78;;;16.98;59.65
81274;BME280;70753;47.908;11.274;2023-10-09T00:24:43;95474.78;;;16.93;60.03
81274;BME280;70753;47.908;11.274;2023-10-09T00:27:09;95476.47;;;17.03;59.73
81274;BME280;70753;47.908;11.274;2023-10-09T00:29:34;95467.69;;;16.97;59.97
81274;BME280;70753;47.908;11.274;2023-10-09T00:31:59;95462.09;;;17.07;59.93
81274;BME280;70753;47.908;11.274;2023-10-09T00:34:25;95471.78;;;16.95;60.27
81274;BME280;70753;47.908;11.274;2023-10-09T00:36:50;95475.03;;;16.83;60.99
81274;BME280;70753;47.908;11.274;2023-10-09T00:39:17;95470.16;;;16.85;60.74
81274;BME280;70753;47.908;11.274;2023-10-09T00:41:43;95462.50;;;16.78;61.16
81274;BME280;70753;47.908;11.274;2023-10-09T00:44:08;95459.47;;;16.80;61.31
81274;BME280;70753;47.908;11.274;2023-10-09T00:46:34;95455.47;;;16.91;60.75
81274;BME280;70753;47.908;11.274;2023-10-09T00:49:00;95448.66;;;16.94;60.84
81274;BME280;70753;47.908;11.274;2023-10-09T00:51:26;95449.47;;;16.94;60.96
81274;BME280;70753;47.908;11.274;2023-10-09T00:53:54;95459.13;;;16.95;60.96
81274;BME280;70753;47.908;11.274;2023-10-09T00:56:22;95448.47;;;16.90;61.41
81274;BME280;70753;47.908;11.274;2023-10-09T00:58:49;95437.09;;;16.93;61.05
81274;BME280;70753;47.908;11.274;2023-10-09T01:01:15;95438.28;;;17.01;60.92
81274;BME280;70753;47.908;11.274;2023-10-09T01:03:41;95426.38;;;16.79;61.54
81274;BME280;70753;47.908;11.274;2023-10-09T01:06:06;95431.69;;;16.93;61.04
81274;BME280;70753;47.908;11.274;2023-10-09T01:08:31;95425.72;;;16.96;60.91
81274;BME280;70753;47.908;11.274;2023-10-09T01:10:57;95429.50;;;16.95;61.02
81274;BME280;70753;47.908;11.274;2023-10-09T01:13:25;95421.91;;;16.97;61.03
81274;BME280;70753;47.908;11.274;2023-10-09T01:15:51;95415.06;;;16.91;60.96
81274;BME280;70753;47.908;11.274;2023-10-09T01:18:16;95417.16;;;16.94;61.05
81274;BME280;70753;47.908;11.274;2023-10-09T01:20:42;95415.78;;;16.83;61.34
81274;BME280;70753;47.908;11.274;2023-10-09T01:23:10;95414.69;;;16.84;61.32
81274;BME280;70753;47.908;11.274;2023-10-09T01:25:36;95420.13;;;16.93;60.97
81274;BME280;70753;47.908;11.274;2023-10-09T01:28:01;95417.25;;;16.89;61.00
81274;BME280;70753;47.908;11.274;2023-10-09T01:30:27;95409.28;;;16.84;61.03
81274;BME280;70753;47.908;11.274;2023-10-09T01:32:52;95401.09;;;16.89;61.01
81274;BME280;70753;47.908;11.274;2023-10-09T01:35:18;95410.22;;;16.79;61.19
81274;BME280;70753;47.908;11.274;2023-10-09T01:37:43;95399.66;;;16.83;61.06
81274;BME280;70753;47.908;11.274;2023-10-09T01:40:10;95396.47;;;16.81;61.21
81274;BME280;70753;47.908;11.274;2023-10-09T01:42:35;95401.34;;;16.79;61.17
81274;BME280;70753;47.908;11.274;2023-10-09T01:45:01;95403.69;;;16.72;61.42
81274;BME280;70753;47.908;11.274;2023-10-09T01:47:27;95394.47;;;16.73;61.48
81274;BME280;70753;47.908;11.274;2023-10-09T01:49:52;95398.28;;;16.72;61.48
81274;BME280;70753;47.908;11.274;2023-10-09T01:52:18;95401.91;;;16.67;61.35
81274;BME280;70753;47.908;11.274;2023-10-09T01:54:44;95396.38;;;16.50;61.93
81274;BME280;70753;47.908;11.274;2023-10-09T01:57:11;95397.25;;;16.46;61.88
81274;BME280;70753;47.908;11.274;2023-10-09T01:59:37;95402.16;;;16.44;61.82
81274;BME280;70753;47.908;11.274;2023-10-09T02:02:04;95392.59;;;16.38;62.12
81274;BME280;70753;47.908;11.274;2023-10-09T02:04:30;95403.53;;;16.41;61.99
81274;BME280;70753;47.908;11.274;2023-10-09T02:06:55;95393.75;;;16.45;61.46
81274;BME280;70753;47.908;11.274;2023-10-09T02:09:21;95393.56;;;16.42;61.71
81274;BME280;70753;47.908;11.274;2023-10-09T02:11:46;95396.44;;;16.45;61.76
81274;BME280;70753;47.908;11.274;2023-10-09T02:14:13;95391.78;;;16.51;61.56
81274;BME280;70753;47.908;11.274;2023-10-09T02:16:38;95393.38;;;16.52;61.18
81274;BME280;70753;47.908;11.274;2023-10-09T02:19:04;95388.88;;;16.47;61.51
81274;BME280;70753;47.908;11.274;2023-10-09T02:21:29;95384.41;;;16.43;61.66
81274;BME280;70753;47.908;11.274;2023-10-09T02:23:54;95383.47;;;16.47;61.53
81274;BME280;70753;47.908;11.274;2023-10-09T02:26:20;95382.59;;;16.52;61.19
81274;BME280;70753;47.908;11.274;2023-10-09T02:28:46;95379.03;;;16.43;61.67
81274;BME280;70753;47.908;11.274;2023-10-09T02:31:13;95376.63;;;16.41;61.86
81274;BME280;70753;47.908;11.274;2023-10-09T02:33:39;95371.31;;;16.28;62.05
81274;BME280;70753;47.908;11.274;2023-10-09T02:36:05;95372.88;;;16.29;62.34
81274;BME280;70753;47.908;11.274;2023-10-09T02:38:31;95365.94;;;16.28;62.28
81274;BME280;70753;47.908;11.274;2023-10-09T02:40:56;95365.78;;;16.33;62.06
81274;BME280;70753;47.908;11.274;2023-10-09T02:43:22;95363.50;;;16.40;61.94
81274;BME280;70753;47.908;11.274;2023-10-09T02:45:48;95357.94;;;16.36;61.81
81274;BME280;70753;47.908;11.274;2023-10-09T02:48:16;95358.94;;;16.27;62.09
81274;BME280;70753;47.908;11.274;2023-10-09T02:50:43;95353.97;;;16.20;61.92
81274;BME280;70753;47.908;11.274;2023-10-09T02:53:09;95359.97;;;16.17;62.00
81274;BME280;70753;47.908;11.274;2023-10-09T02:55:34;95362.38;;;16.19;62.15
81274;BME280;70753;47.908;11.274;2023-10-09T02:58:00;95347.13;;;16.14;61.93
81274;BME280;70753;47.908;11.274;2023-10-09T03:00:25;95346.31;;;16.13;62.02
81274;BME280;70753;47.908;11.274;2023-10-09T03:02:50;95350.63;;;16.15;61.67
81274;BME280;70753;47.908;11.274;2023-10-09T03:05:17;95345.09;;;15.97;62.22
81274;BME280;70753;47.908;11.274;2023-10-09T03:07:43;95345.09;;;15.97;62.22
81274;BME280;70753;47.908;11.274;2023-10-09T03:10:08;95349.25;;;16.03;61.80
81274;BME280;70753;47.908;11.274;2023-10-09T03:12:34;95351.06;;;15.94;62.15
81274;BME280;70753;47.908;11.274;2023-10-09T03:14:59;95341.66;;;16.05;62.06
81274;BME280;70753;47.908;11.274;2023-10-09T03:17:25;95347.16;;;16.00;62.11
81274;BME280;70753;47.908;11.274;2023-10-09T03:19:50;95340.31;;;15.94;62.67
81274;BME280;70753;47.908;11.274;2023-10-09T03:22:17;95343.72;;;15.86;63.26
81274;BME280;70753;47.908;11.274;2023-10-09T03:24:43;95335.72;;;15.95;63.00
81274;BME280;70753;47.908;11.274;2023-10-09T03:27:09;95332.47;;;15.84;63.21
81274;BME280;70753;47.908;11.274;2023-10-09T03:29:34;95335.59;;;16.00;62.95
81274;BME280;70753;47.908;11.274;2023-10-09T03:31:59;95333.13;;;16.03;62.79
81274;BME280;70753;47.908;11.274;2023-10-09T03:34:25;95332.31;;;16.03;62.75
81274;BME280;70753;47.908;11.274;2023-10-09T03:36:52;95326.75;;;15.99;62.26
81274;BME280;70753;47.908;11.274;2023-10-09T03:39:19;95318.03;;;15.80;62.66
81274;BME280;70753;47.908;11.274;2023-10-09T03:41:45;95315.84;;;15.55;61.87
81274;BME280;70753;47.908;11.274;2023-10-09T03:44:10;95314.13;;;15.86;60.31
81274;BME280;70753;47.908;11.274;2023-10-09T03:46:35;95306.09;;;16.08;56.57
81274;BME280;70753;47.908;11.274;2023-10-09T03:49:01;95301.28;;;16.19;55.35
81274;BME280;70753;47.908;11.274;2023-10-09T03:51:26;95305.66;;;16.51;53.98
81274;BME280;70753;47.908;11.274;2023-10-09T03:53:52;95302.06;;;16.86;52.15
81274;BME280;70753;47.908;11.274;2023-10-09T03:56:19;95298.59;;;17.25;50.20
81274;BME280;70753;47.908;11.274;2023-10-09T03:58:46;95296.03;;;17.59;48.62
81274;BME280;70753;47.908;11.274;2023-10-09T04:01:13;95295.44;;;17.71;50.17
81274;BME280;70753;47.908;11.274;2023-10-09T04:03:38;95296.84;;;17.59;51.11
81274;BME280;70753;47.908;11.274;2023-10-09T04:06:04;95294.06;;;17.42;52.43
81274;BME280;70753;47.908;11.274;2023-10-09T04:08:29;95296.75;;;17.42;53.57
81274;BME280;70753;47.908;11.274;2023-10-09T04:10:55;95294.13;;;17.20;53.69
81274;BME280;70753;47.908;11.274;2023-10-09T04:13:22;95300.59;;;17.41;53.75
81274;BME280;70753;47.908;11.274;2023-10-09T04:15:47;95290.22;;;17.26;53.11
81274;BME280;70753;47.908;11.274;2023-10-09T04:18:12;95289.94;;;17.36;53.64
81274;BME280;70753;47.908;11.274;2023-10-09T04:20:38;95291.97;;;17.31;53.81
81274;BME280;70753;47.908;11.274;2023-10-09T04:23:03;95293.88;;;17.30;52.70
81274;BME280;70753;47.908;11.274;2023-10-09T04:25:28;95293.47;;;17.45;51.81
81274;BME280;70753;47.908;11.274;2023-10-09T04:27:54;95289.59;;;17.29;53.27
81274;BME280;70753;47.908;11.274;2023-10-09T04:30:22;95282.31;;;17.38;51.55
81274;BME280;70753;47.908;11.274;2023-10-09T04:32:47;95283.63;;;17.49;50.39
81274;BME280;70753;47.908;11.274;2023-10-09T04:35:12;95284.63;;;17.53;51.59
81274;BME280;70753;47.908;11.274;2023-10-09T04:37:38;95283.16;;;17.47;51.64
81274;BME280;70753;47.908;11.274;2023-10-09T04:40:04;95287.06;;;17.24;53.11
81274;BME280;70753;47.908;11.274;2023-10-09T04:42:29;95284.53;;;17.36;52.54
81274;BME280;70753;47.908;11.274;2023-10-09T04:44:55;95284.69;;;17.31;52.12
81274;BME280;70753;47.908;11.274;2023-10-09T04:47:21;95283.19;;;17.17;52.76
81274;BME280;70753;47.908;11.274;2023-10-09T04:49:47;95279.63;;;17.38;50.32
81274;BME280;70753;47.908;11.274;2023-10-09T04:52:12;95284.84;;;17.26;52.61
81274;BME280;70753;47.908;11.274;2023-10-09T04:54:38;95291.72;;;17.10;52.98
81274;BME280;70753;47.908;11.274;2023-10-09T04:57:03;95285.97;;;17.34;51.73
81274;BME280;70753;47.908;11.274;2023-10-09T04:59:28;95279.50;;;17.43;51.05
81274;BME280;70753;47.908;11.274;2023-10-09T05:01:54;95290.13;;;17.48;51.45
81274;BME280;70753;47.908;11.274;2023-10-09T05:04:21;95291.94;;;17.22;53.17
81274;BME280;70753;47.908;11.274;2023-10-09T05:06:47;95292.44;;;17.24;51.72
81274;BME280;70753;47.908;11.274;2023-10-09T05:09:12;95289.31;;;17.39;50.17
81274;BME280;70753;47.908;11.274;2023-10-09T05:11:38;95287.75;;;17.47;50.02
81274;BME280;70753;47.908;11.274;2023-10-09T05:14:03;95290.03;;;17.62;50.61
81274;BME280;70753;47.908;11.274;2023-10-09T05:16:28;95287.22;;;17.76;48.65
81274;BME280;70753;47.908;11.274;2023-10-09T05:18:55;95282.94;;;17.83;46.63
81274;BME280;70753;47.908;11.274;2023-10-09T05:21:22;95290.09;;;18.05;45.89
81274;BME280;70753;47.908;11.274;2023-10-09T05:23:48;95291.69;;;18.23;46.00
81274;BME280;70753;47.908;11.274;2023-10-09T05:26:13;95277.88;;;18.42;44.18
81274;BME280;70753;47.908;11.274;2023-10-09T05:28:38;95283.13;;;18.55;44.16
81274;BME280;70753;47.908;11.274;2023-10-09T05:31:04;95282.44;;;18.75;43.65
81274;BME280;70753;47.908;11.274;2023-10-09T05:33:29;95280.81;;;18.91;42.86
81274;BME280;70753;47.908;11.274;2023-10-09T05:35:55;95290.63;;;19.04;45.24
81274;BME280;70753;47.908;11.274;2023-10-09T05:38:22;95286.50;;;18.98;43.42
81274;BME280;70753;47.908;11.274;2023-10-09T05:40:48;95289.50;;;19.05;42.74
81274;BME280;70753;47.908;11.274;2023-10-09T05:43:13;95288.69;;;19.13;42.89
81274;BME280;70753;47.908;11.274;2023-10-09T05:45:38;95287.41;;;19.20;42.44
81274;BME280;70753;47.908;11.274;2023-10-09T05:48:04;95293.75;;;19.24;43.51
81274;BME280;70753;47.908;11.274;2023-10-09T05:50:30;95299.63;;;19.34;42.25
81274;BME280;70753;47.908;11.274;2023-10-09T05:52:57;95298.44;;;19.44;41.05
81274;BME280;70753;47.908;11.274;2023-10-09T05:55:25;95301.75;;;19.58;41.13
81274;BME280;70753;47.908;11.274;2023-10-09T05:57:51;95300.59;;;19.59;41.95
81274;BME280;70753;47.908;11.274;2023-10-09T06:00:16;95305.50;;;19.65;41.02
81274;BME280;70753;47.908;11.274;2023-10-09T06:02:42;95300.72;;;19.71;41.44
81274;BME280;70753;47.908;11.274;2023-10-09T06:05:07;95311.72;;;19.66;42.48
81274;BME280;70753;47.908;11.274;2023-10-09T06:07:33;95309.09;;;19.78;42.53
81274;BME280;70753;47.908;11.274;2023-10-09T06:09:58;95312.00;;;19.73;42.40
81274;BME280;70753;47.908;11.274;2023-10-09T06:12:25;95310.28;;;19.89;41.22
81274;BME280;70753;47.908;11.274;2023-10-09T06:14:52;95307.13;;;19.87;41.00
81274;BME280;70753;47.908;11.274;2023-10-09T06:17:17;95316.91;;;20.00;41.20
81274;BME280;70753;47.908;11.274;2023-10-09T06:19:43;95314.94;;;20.09;41.57
81274;BME280;70753;47.908;11.274;2023-10-09T06:22:09;95314.88;;;20.18;41.61
81274;BME280;70753;47.908;11.274;2023-10-09T06:24:35;95322.63;;;20.28;41.86
81274;BME280;70753;47.908;11.274;2023-10-09T06:27:00;95327.13;;;20.44;42.12
81274;BME280;70753;47.908;11.274;2023-10-09T06:29:28;95319.50;;;20.46;42.25
81274;BME280;70753;47.908;11.274;2023-10-09T06:31:53;95326.84;;;20.58;41.51
81274;BME280;70753;47.908;11.274;2023-10-09T06:34:19;95319.19;;;20.60;43.01
81274;BME280;70753;47.908;11.274;2023-10-09T06:36:45;95317.84;;;20.66;41.34
81274;BME280;70753;47.908;11.274;2023-10-09T06:39:10;95324.13;;;20.79;42.80
81274;BME280;70753;47.908;11.274;2023-10-09T06:41:35;95319.28;;;20.84;41.59
81274;BME280;70753;47.908;11.274;2023-10-09T06:44:01;95320.31;;;20.92;42.31
81274;BME280;70753;47.908;11.274;2023-10-09T06:46:28;95326.59;;;20.72;43.97
81274;BME280;70753;47.908;11.274;2023-10-09T06:48:54;95326.06;;;20.57;45.62
81274;BME280;70753;47.908;11.274;2023-10-09T06:51:19;95332.53;;;20.44;45.43
81274;BME280;70753;47.908;11.274;2023-10-09T06:53:45;95322.81;;;20.64;46.29
81274;BME280;70753;47.908;11.274;2023-10-09T06:56:10;95320.25;;;20.68;45.76
81274;BME280;70753;47.908;11.274;2023-10-09T06:58:37;95325.00;;;20.71;46.68
81274;BME280;70753;47.908;11.274;2023-10-09T07:01:03;95323.66;;;20.77;47.01
81274;BME280;70753;47.908;11.274;2023-10-09T07:03:30;95326.59;;;20.72;47.65
81274;BME280;70753;47.908;11.274;2023-10-09T07:06:04;95330.22;;;20.76;45.05
81274;BME280;70753;47.908;11.274;2023-10-09T07:08:29;95334.75;;;20.84;45.78
81274;BME280;70753;47.908;11.274;2023-10-09T07:10:55;95337.50;;;21.16;44.12
81274;BME280;70753;47.908;11.274;2023-10-09T07:13:20;95332.53;;;21.30;44.55
81274;BME280;70753;47.908;11.274;2023-10-09T07:15:46;95334.94;;;21.56;41.92
81274;BME280;70753;47.908;11.274;2023-10-09T07:18:11;95339.25;;;21.69;40.43
81274;BME280;70753;47.908;11.274;2023-10-09T07:20:38;95337.91;;;21.75;40.46
81274;BME280;70753;47.908;11.274;2023-10-09T07:23:04;95334.31;;;21.95;39.38
81274;BME280;70753;47.908;11.274;2023-10-09T07:25:29;95333.72;;;22.02;42.66
81274;BME280;70753;47.908;11.274;2023-10-09T07:27:55;95332.13;;;22.13;41.13
81274;BME280;70753;47.908;11.274;2023-10-09T07:30:21;95333.59;;;22.10;42.38
81274;BME280;70753;47.908;11.274;2023-10-09T07:32:47;95338.78;;;22.28;40.29
81274;BME280;70753;47.908;11.274;2023-10-09T07:35:14;95329.75;;;22.24;38.97
81274;BME280;70753;47.908;11.274;2023-10-09T07:37:40;95343.16;;;22.44;39.06
81274;BME280;70753;47.908;11.274;2023-10-09T07:40:07;95341.69;;;22.47;39.61
81274;BME280;70753;47.908;11.274;2023-10-09T07:42:33;95346.28;;;22.70;38.77
81274;BME280;70753;47.908;11.274;2023-10-09T07:45:00;95343.19;;;22.84;37.48
81274;BME280;70753;47.908;11.274;2023-10-09T07:47:25;95347.69;;;22.92;37.68
81274;BME280;70753;47.908;11.274;2023-10-09T07:49:51;95346.13;;;22.91;38.36
81274;BME280;70753;47.908;11.274;2023-10-09T07:52:16;95349.22;;;23.05;38.60
81274;BME280;70753;47.908;11.274;2023-10-09T07:54:43;95340.28;;;23.20;38.48
81274;BME280;70753;47.908;11.274;2023-10-09T07:57:09;95337.81;;;23.15;39.50
81274;BME280;70753;47.908;11.274;2023-10-09T07:59:35;95341.91;;;23.37;36.64
81274;BME280;70753;47.908;11.274;2023-10-09T08:02:00;95340.22;;;23.32;38.30
81274;BME280;70753;47.908;11.274;2023-10-09T08:04:26;95339.41;;;23.59;37.30
81274;BME280;70753;47.908;11.274;2023-10-09T08:06:51;95342.56;;;23.61;37.15
81274;BME280;70753;47.908;11.274;2023-10-09T08:09:16;95339.41;;;23.59;37.04
81274;BME280;70753;47.908;11.274;2023-10-09T08:11:45;95351.88;;;23.92;36.49
81274;BME280;70753;47.908;11.274;2023-10-09T08:14:11;95338.25;;;23.92;36.18
81274;BME280;70753;47.908;11.274;2023-10-09T08:16:37;95343.22;;;24.21;36.26
81274;BME280;70753;47.908;11.274;2023-10-09T08:19:03;95340.25;;;24.26;36.36
81274;BME280;70753;47.908;11.274;2023-10-09T08:21:28;95335.66;;;24.30;35.45
81274;BME280;70753;47.908;11.274;2023-10-09T08:23:54;95343.59;;;24.54;35.26
81274;BME280;70753;47.908;11.274;2023-10-09T08:26:19;95340.00;;;24.50;35.60
81274;BME280;70753;47.908;11.274;2023-10-09T08:28:46;95348.50;;;24.49;35.24
81274;BME280;70753;47.908;11.274;2023-10-09T08:31:12;95344.72;;;24.53;35.74
81274;BME280;70753;47.908;11.274;2023-10-09T08:33:38;95345.91;;;24.71;35.04
81274;BME280;70753;47.908;11.274;2023-10-09T08:36:04;95350.84;;;24.66;35.65
81274;BME280;70753;47.908;11.274;2023-10-09T08:38:30;95349.59;;;24.63;35.89
81274;BME280;70753;47.908;11.274;2023-10-09T08:40:55;95355.06;;;24.63;36.13
81274;BME280;70753;47.908;11.274;2023-10-09T08:43:21;95363.81;;;24.72;35.64
81274;BME280;70753;47.908;11.274;2023-10-09T08:45:51;95356.81;;;24.71;35.10
81274;BME280;70753;47.908;11.274;2023-10-09T08:48:18;95364.97;;;24.52;35.33
81274;BME280;70753;47.908;11.274;2023-10-09T08:50:45;95365.84;;;24.56;35.02
81274;BME280;70753;47.908;11.274;2023-10-09T08:53:13;95370.19;;;24.42;35.61
81274;BME280;70753;47.908;11.274;2023-10-09T08:55:39;95360.44;;;24.60;35.62
81274;BME280;70753;47.908;11.274;2023-10-09T08:58:05;95370.00;;;24.69;35.37
81274;BME280;70753;47.908;11.274;2023-10-09T09:00:30;95368.03;;;24.51;36.25
81274;BME280;70753;47.908;11.274;2023-10-09T09:02:59;95372.28;;;24.48;36.32
81274;BME280;70753;47.908;11.274;2023-10-09T09:05:25;95374.84;;;24.41;36.93
81274;BME280;70753;47.908;11.274;2023-10-09T09:07:51;95376.00;;;24.59;36.44
81274;BME280;70753;47.908;11.274;2023-10-09T09:10:16;95374.16;;;24.63;36.27
81274;BME280;70753;47.908;11.274;2023-10-09T09:12:43;95378.06;;;24.47;35.95
81274;BME280;70753;47.908;11.274;2023-10-09T09:15:13;95382.19;;;24.56;36.22
81274;BME280;70753;47.908;11.274;2023-10-09T09:17:39;95378.03;;;24.62;36.71
81274;BME280;70753;47.908;11.274;2023-10-09T09:20:22;95379.41;;;24.72;36.23
81274;BME280;70753;47.908;11.274;2023-10-09T09:22:52;95378.63;;;24.71;36.53
81274;BME280;70753;47.908;11.274;2023-10-09T09:25:17;95377.22;;;24.77;36.58
81274;BME280;70753;47.908;11.274;2023-10-09T09:27:43;95379.25;;;24.80;36.13
81274;BME280;70753;47.908;11.274;2023-10-09T09:30:22;95386.00;;;24.86;36.03
81274;BME280;70753;47.908;11.274;2023-10-09T09:32:47;95387.56;;;24.87;36.55
81274;BME280;70753;47.908;11.274;2023-10-09T09:35:13;95388.78;;;25.09;35.17
81274;BME280;70753;47.908;11.274;2023-10-09T09:37:40;95386.00;;;24.86;36.92
81274;BME280;70753;47.908;11.274;2023-10-09T09:40:06;95392.88;;;24.80;35.72
81274;BME280;70753;47.908;11.274;2023-10-09T09:42:32;95392.94;;;24.84;36.22
81274;BME280;70753;47.908;11.274;2023-10-09T09:45:01;95393.66;;;24.81;35.68
81274;BME280;70753;47.908;11.274;2023-10-09T09:47:26;95389.28;;;24.95;35.16
81274;BME280;70753;47.908;11.274;2023-10-09T09:49:52;95386.00;;;24.86;35.92
81274;BME280;70753;47.908;11.274;2023-10-09T09:52:18;95388.34;;;24.88;36.31
81274;BME280;70753;47.908;11.274;2023-10-09T09:54:46;95387.72;;;25.13;36.04
81274;BME280;70753;47.908;11.274;2023-10-09T09:57:13;95396.13;;;25.05;35.85
81274;BME280;70753;47.908;11.274;2023-10-09T09:59:41;95386.41;;;25.07;35.67
81274;BME280;70753;47.908;11.274;2023-10-09T10:02:07;95390.38;;;25.10;36.08
81274;BME280;70753;47.908;11.274;2023-10-09T10:04:38;95393.75;;;25.23;35.10
81274;BME280;70753;47.908;11.274;2023-10-09T10:07:06;95393.88;;;25.30;35.32
81274;BME280;70753;47.908;11.274;2023-10-09T10:09:35;95396.03;;;25.21;35.33
81274;BME280;70753;47.908;11.274;2023-10-09T10:12:02;95392.28;;;25.29;35.07
81274;BME280;70753;47.908;11.274;2023-10-09T10:14:52;95399.63;;;25.25;34.96
81274;BME280;70753;47.908;11.274;2023-10-09T10:17:19;95403.16;;;25.25;35.24
81274;BME280;70753;47.908;11.274;2023-10-09T10:20:01;95401.75;;;25.35;35.45
81274;BME280;70753;47.908;11.274;2023-10-09T10:22:29;95389.13;;;25.27;34.38
81274;BME280;70753;47.908;11.274;2023-10-09T10:24:55;95398.19;;;25.11;34.75
81274;BME280;70753;47.908;11.274;2023-10-09T10:27:24;95395.09;;;25.13;35.31
81274;BME280;70753;47.908;11.274;2023-10-09T10:32:55;95393.31;;;25.01;35.50
81274;BME280;70753;47.908;11.274;2023-10-09T10:35:21;95394.41;;;24.97;35.21
81274;BME280;70753;47.908;11.274;2023-10-09T10:37:47;95397.03;;;24.93;35.36
81274;BME280;70753;47.908;11.274;2023-10-09T10:40:12;95394.25;;;25.09;35.99
81274;BME280;70753;47.908;11.274;2023-10-09T10:42:48;95390.38;;;25.10;36.93
81274;BME280;70753;47.908;11.274;2023-10-09T10:45:17;95388.06;;;25.12;35.34
81274;BME280;70753;47.908;11.274;2023-10-09T10:47:43;95381.75;;;25.08;35.72
81274;BME280;70753;47.908;11.274;2023-10-09T10:50:08;95379.59;;;24.98;35.06
81274;BME280;70753;47.908;11.274;2023-10-09T10:52:35;95370.88;;;24.73;36.79
81274;BME280;70753;47.908;11.274;2023-10-09T10:55:08;95375.78;;;25.22;36.16
81274;BME280;70753;47.908;11.274;2023-10-09T10:57:36;95384.31;;;25.20;36.36
81274;BME280;70753;47.908;11.274;2023-10-09T11:00:11;95379.72;;;25.24;35.91
81274;BME280;70753;47.908;11.274;2023-10-09T11:02:36;95369.31;;;25.10;35.03
81274;BME280;70753;47.908;11.274;2023-10-09T11:05:02;95368.16;;;25.31;35.56
81274;BME280;70753;47.908;11.274;2023-10-09T11:07:27;95373.19;;;25.48;34.81
81274;BME280;70753;47.908;11.274;2023-10-09T11:09:55;95370.75;;;25.04;35.56
81274;BME280;70753;47.908;11.274;2023-10-09T11:12:20;95369.19;;;25.03;35.12
81274;BME280;70753;47.908;11.274;2023-10-09T11:14:46;95366.53;;;24.88;35.04
81274;BME280;70753;47.908;11.274;2023-10-09T11:17:16;95368.88;;;25.28;35.35
81274;BME280;70753;47.908;11.274;2023-10-09T11:19:41;95371.63;;;25.47;34.56
81274;BME280;70753;47.908;11.274;2023-10-09T11:22:07;95357.72;;;25.55;34.26
81274;BME280;70753;47.908;11.274;2023-10-09T11:24:33;95367.09;;;25.77;34.63
81274;BME280;70753;47.908;11.274;2023-10-09T11:27:00;95360.66;;;25.92;33.95
81274;BME280;70753;47.908;11.274;2023-10-09T11:29:26;95358.63;;;26.08;34.18
81274;BME280;70753;47.908;11.274;2023-10-09T11:32:03;95363.16;;;26.49;33.02
81274;BME280;70753;47.908;11.274;2023-10-09T11:34:31;95355.91;;;26.60;32.81
81274;BME280;70753;47.908;11.274;2023-10-09T11:36:57;95353.19;;;26.90;31.99
81274;BME280;70753;47.908;11.274;2023-10-09T11:39:25;95349.13;;;26.77;32.12
81274;BME280;70753;47.908;11.274;2023-10-09T11:42:00;95354.75;;;26.65;31.76
81274;BME280;70753;47.908;11.274;2023-10-09T11:44:34;95348.94;;;26.67;32.29
81274;BME280;70753;47.908;11.274;2023-10-09T11:47:01;95340.75;;;26.67;31.73
81274;BME280;70753;47.908;11.274;2023-10-09T11:49:26;95342.06;;;26.76;30.78
81274;BME280;70753;47.908;11.274;2023-10-09T11:52:05;95339.38;;;26.80;31.75
81274;BME280;70753;47.908;11.274;2023-10-09T11:54:30;95333.06;;;26.76;30.39
81274;BME280;70753;47.908;11.274;2023-10-09T11:56:56;95341.06;;;26.61;31.01
81274;BME280;70753;47.908;11.274;2023-10-09T11:59:21;95333.59;;;26.58;31.39
81274;BME280;70753;47.908;11.274;2023-10-09T12:01:46;95340.41;;;26.72;30.21
81274;BME280;70753;47.908;11.274;2023-10-09T12:04:12;95336.81;;;26.94;31.33
81274;BME280;70753;47.908;11.274;2023-10-09T12:06:37;95330.06;;;26.58;29.96
81274;BME280;70753;47.908;11.274;2023-10-09T12:09:04;95328.97;;;26.63;28.64
81274;BME280;70753;47.908;11.274;2023-10-09T12:11:30;95342.50;;;26.26;29.55
81274;BME280;70753;47.908;11.274;2023-10-09T12:13:55;95345.19;;;26.22;29.05
81274;BME280;70753;47.908;11.274;2023-10-09T12:16:20;95330.06;;;26.28;29.18
81274;BME280;70753;47.908;11.274;2023-10-09T12:18:46;95335.78;;;25.97;28.91
81274;BME280;70753;47.908;11.274;2023-10-09T12:21:12;95333.84;;;25.98;29.36
81274;BME280;70753;47.908;11.274;2023-10-09T12:23:38;95329.97;;;25.76;30.02
81274;BME280;70753;47.908;11.274;2023-10-09T12:26:04;95323.88;;;25.86;29.43
81274;BME280;70753;47.908;11.274;2023-10-09T12:28:30;95318.59;;;25.97;29.49
81274;BME280;70753;47.908;11.274;2023-10-09T12:30:56;95322.38;;;25.88;29.23
81274;BME280;70753;47.908;11.274;2023-10-09T12:33:21;95323.81;;;25.79;30.03
81274;BME280;70753;47.908;11.274;2023-10-09T12:35:47;95323.38;;;25.77;29.68
81274;BME280;70753;47.908;11.274;2023-10-09T12:38:13;95331.56;;;25.77;30.00
81274;BME280;70753;47.908;11.274;2023-10-09T12:40:40;95318.94;;;25.69;30.37
81274;BME280;70753;47.908;11.274;2023-10-09T12:43:07;95327.28;;;25.53;30.25
81274;BME280;70753;47.908;11.274;2023-10-09T12:45:34;95329.88;;;25.27;30.62
81274;BME280;70753;47.908;11.274;2023-10-09T12:47:59;95335.69;;;25.45;30.69